createdAt,value
2023-04-20T00:00:25.093Z,14.20
2023-04-20T00:02:53.785Z,17.40
2023-04-20T00:05:21.146Z,18.60
2023-04-20T00:07:49.281Z,22.60
2023-04-20T00:10:16.873Z,16.80
2023-04-20T00:12:44.442Z,15.00
2023-04-20T00:15:11.682Z,18.50
2023-04-20T00:17:39.444Z,13.40
2023-04-20T00:20:09.946Z,14.30
2023-04-20T00:22:38.145Z,18.50
2023-04-20T00:25:05.928Z,13.00
2023-04-20T00:27:33.578Z,16.30
2023-04-20T00:30:00.826Z,18.40
2023-04-20T00:32:29.950Z,17.30
2023-04-20T00:34:57.120Z,16.90
2023-04-20T00:37:25.341Z,19.50
2023-04-20T00:39:55.358Z,21.70
2023-04-20T00:42:22.524Z,13.40
2023-04-20T00:44:51.507Z,24.10
2023-04-20T00:47:18.691Z,21.50
2023-04-20T00:49:46.084Z,21.00
2023-04-20T00:52:13.252Z,22.00
2023-04-20T00:54:40.527Z,19.90
2023-04-20T00:57:07.861Z,18.50
2023-04-20T00:59:35.622Z,18.90
2023-04-20T01:02:02.872Z,18.10
2023-04-20T01:04:30.771Z,22.10
2023-04-20T01:06:58.711Z,30.60
2023-04-20T01:09:25.887Z,30.30
2023-04-20T01:11:53.018Z,33.40
2023-04-20T01:14:20.119Z,35.30
2023-04-20T01:16:47.354Z,37.10
2023-04-20T01:19:14.574Z,31.70
2023-04-20T01:21:42.634Z,35.60
2023-04-20T01:24:09.721Z,33.40
2023-04-20T01:26:36.944Z,28.40
2023-04-20T01:29:04.594Z,30.70
2023-04-20T01:31:31.962Z,44.90
2023-04-20T01:33:59.220Z,36.60
2023-04-20T01:36:26.664Z,39.90
2023-04-20T01:38:53.813Z,28.40
2023-04-20T01:41:21.585Z,33.10
2023-04-20T01:43:49.136Z,37.50
2023-04-20T01:46:16.819Z,40.30
2023-04-20T01:48:44.073Z,34.40
2023-04-20T01:51:12.011Z,33.30
2023-04-20T01:53:39.784Z,34.30
2023-04-20T01:56:08.621Z,47.70
2023-04-20T01:58:36.132Z,37.40
2023-04-20T02:01:03.404Z,41.40
2023-04-20T02:03:31.066Z,33.10
2023-04-20T02:05:59.121Z,39.40
2023-04-20T02:08:30.254Z,34.10
2023-04-20T02:10:58.021Z,36.70
2023-04-20T02:13:25.298Z,36.20
2023-04-20T02:15:52.524Z,35.80
2023-04-20T02:18:19.775Z,37.30
2023-04-20T02:20:47.162Z,29.70
2023-04-20T02:23:14.513Z,34.80
2023-04-20T02:25:42.142Z,34.80
2023-04-20T02:28:11.750Z,36.10
2023-04-20T02:30:39.115Z,35.70
2023-04-20T02:33:14.269Z,39.70
2023-04-20T02:35:44.156Z,34.80
2023-04-20T02:38:11.716Z,35.80
2023-04-20T02:40:39.387Z,39.00
2023-04-20T02:43:06.935Z,36.00
2023-04-20T02:45:34.516Z,44.60
2023-04-20T02:48:02.362Z,39.20
2023-04-20T02:50:30.963Z,34.10
2023-04-20T02:53:18.803Z,28.30
2023-04-20T02:55:50.260Z,32.70
2023-04-20T02:58:27.810Z,31.20
2023-04-20T03:03:41.360Z,37.30
2023-04-20T03:06:12.134Z,26.70
2023-04-20T03:08:40.286Z,29.50
2023-04-20T03:11:27.518Z,30.00
2023-04-20T03:13:55.084Z,31.10
2023-04-20T03:16:22.703Z,23.10
2023-04-20T03:18:53.055Z,31.00
2023-04-20T03:21:22.054Z,24.40
2023-04-20T03:23:50.110Z,27.00
2023-04-20T03:26:18.185Z,24.50
2023-04-20T03:29:04.994Z,29.10
2023-04-20T03:31:32.405Z,29.00
2023-04-20T03:34:00.941Z,23.70
2023-04-20T03:36:29.628Z,19.90
2023-04-20T03:38:57.068Z,23.00
2023-04-20T03:41:24.567Z,21.10
2023-04-20T03:43:52.011Z,22.00
2023-04-20T03:46:20.910Z,16.60
2023-04-20T03:51:16.852Z,21.80
2023-04-20T03:53:44.449Z,17.90
2023-04-20T03:56:14.909Z,19.40
2023-04-20T03:58:42.778Z,17.90
2023-04-20T04:01:15.345Z,23.90
2023-04-20T04:03:46.033Z,21.20
2023-04-20T04:06:13.966Z,23.60
2023-04-20T04:08:41.511Z,22.70
2023-04-20T04:11:09.372Z,28.30
2023-04-20T04:13:37.037Z,21.00
2023-04-20T04:16:06.028Z,23.40
2023-04-20T04:18:33.714Z,22.10
2023-04-20T04:21:07.704Z,21.20
2023-04-20T04:23:37.107Z,28.10
2023-04-20T04:26:13.463Z,28.20
2023-04-20T04:28:45.530Z,25.70
2023-04-20T04:31:21.088Z,20.60
2023-04-20T04:33:49.157Z,26.60
2023-04-20T04:36:26.664Z,34.70
2023-04-20T04:38:54.330Z,28.20
2023-04-20T04:41:23.093Z,27.40
2023-04-20T04:43:50.858Z,24.00
2023-04-20T04:46:27.189Z,23.80
2023-04-20T04:48:56.123Z,25.70
2023-04-20T04:51:23.912Z,31.70
2023-04-20T04:53:51.776Z,31.10
2023-04-20T04:56:20.541Z,38.30
2023-04-20T04:58:47.950Z,35.20
2023-04-20T05:01:15.345Z,33.20
2023-04-20T05:03:42.703Z,42.60
2023-04-20T05:06:10.463Z,37.30
2023-04-20T05:08:37.649Z,38.90
2023-04-20T05:11:05.411Z,40.60
2023-04-20T05:13:32.731Z,33.20
2023-04-20T05:15:59.721Z,37.70
2023-04-20T05:18:27.027Z,40.00
2023-04-20T05:20:54.593Z,27.40
2023-04-20T05:23:21.865Z,36.20
2023-04-20T05:25:51.455Z,28.60
2023-04-20T05:28:19.342Z,30.30
2023-04-20T05:30:46.879Z,31.50
2023-04-20T05:33:15.875Z,30.60
2023-04-20T05:35:43.018Z,30.70
2023-04-20T05:38:10.377Z,28.40
2023-04-20T05:40:37.739Z,29.90
2023-04-20T05:43:05.901Z,35.00
2023-04-20T05:45:34.240Z,36.20
2023-04-20T05:48:01.797Z,35.60
2023-04-20T05:50:31.039Z,31.00
2023-04-20T05:52:58.296Z,32.30
2023-04-20T05:55:26.574Z,38.10
2023-04-20T05:57:53.953Z,31.80
2023-04-20T06:00:23.073Z,29.60
2023-04-20T06:02:52.021Z,37.00
2023-04-20T06:05:20.605Z,34.70
2023-04-20T06:07:48.058Z,29.70
2023-04-20T06:10:15.613Z,30.20
2023-04-20T06:12:43.072Z,31.00
2023-04-20T06:15:10.420Z,29.90
2023-04-20T06:17:39.974Z,29.00
2023-04-20T06:20:08.915Z,32.20
2023-04-20T06:22:42.510Z,27.60
2023-04-20T06:25:11.525Z,35.00
2023-04-20T06:27:39.476Z,33.00
2023-04-20T06:30:07.753Z,31.50
2023-04-20T06:32:37.503Z,27.20
2023-04-20T06:35:08.548Z,22.60
2023-04-20T06:37:36.479Z,24.90
2023-04-20T06:40:10.417Z,21.90
2023-04-20T06:42:37.716Z,26.40
2023-04-20T06:45:06.319Z,18.50
2023-04-20T06:47:33.856Z,17.60
2023-04-20T06:50:01.748Z,26.00
2023-04-20T06:52:30.226Z,19.80
2023-04-20T06:55:00.708Z,23.00
2023-04-20T06:57:28.499Z,20.70
2023-04-20T07:00:15.948Z,23.40
2023-04-20T07:02:45.080Z,17.30
2023-04-20T07:05:13.432Z,17.30
2023-04-20T07:07:41.608Z,24.00
2023-04-20T07:10:11.197Z,19.20
2023-04-20T07:12:40.401Z,20.30
2023-04-20T07:15:10.121Z,21.00
2023-04-20T07:17:37.418Z,20.30
2023-04-20T07:20:07.905Z,17.80
2023-04-20T07:22:36.604Z,17.20
2023-04-20T07:25:05.587Z,18.00
2023-04-20T07:27:40.289Z,15.00
2023-04-20T07:30:08.458Z,19.80
2023-04-20T07:32:35.971Z,15.90
2023-04-20T07:35:03.713Z,14.00
2023-04-20T07:37:32.577Z,15.10
2023-04-20T07:39:59.827Z,18.10
2023-04-20T07:42:27.196Z,17.80
2023-04-20T07:44:54.613Z,14.30
2023-04-20T07:47:22.069Z,12.10
2023-04-20T07:49:49.452Z,17.80
2023-04-20T07:52:17.933Z,14.60
2023-04-20T07:54:45.676Z,13.20
2023-04-20T07:57:13.268Z,14.30
2023-04-20T07:59:41.336Z,14.40
2023-04-20T08:02:08.985Z,14.30
2023-04-20T08:04:38.197Z,8.70
2023-04-20T08:07:05.640Z,8.30
2023-04-20T08:09:32.947Z,9.10
2023-04-20T08:12:01.915Z,8.00
2023-04-20T08:14:29.465Z,6.90
2023-04-20T08:16:56.905Z,5.80
2023-04-20T08:19:24.057Z,6.60
2023-04-20T08:21:52.029Z,5.20
2023-04-20T08:24:20.391Z,6.30
2023-04-20T08:26:47.890Z,8.50
2023-04-20T08:29:15.620Z,11.60
2023-04-20T08:31:43.144Z,5.30
2023-04-20T08:34:11.761Z,6.40
2023-04-20T08:36:39.477Z,3.70
2023-04-20T08:39:11.275Z,8.00
2023-04-20T08:41:38.744Z,8.70
2023-04-20T08:44:07.225Z,9.40
2023-04-20T08:46:34.628Z,9.00
2023-04-20T08:49:03.583Z,12.50
2023-04-20T08:51:32.108Z,9.60
2023-04-20T08:54:04.976Z,14.40
2023-04-20T08:56:36.136Z,7.70
2023-04-20T08:59:05.084Z,9.70
2023-04-20T09:01:35.634Z,11.70
2023-04-20T09:04:15.450Z,10.80
2023-04-20T09:06:44.536Z,15.00
2023-04-20T09:09:11.787Z,11.10
2023-04-20T09:11:40.174Z,12.60
2023-04-20T09:14:13.762Z,15.80
2023-04-20T09:16:51.812Z,15.10
2023-04-20T09:19:25.483Z,12.60
2023-04-20T09:21:55.283Z,17.80
2023-04-20T09:24:24.117Z,13.90
2023-04-20T09:26:51.129Z,10.30
2023-04-20T09:29:20.215Z,8.70
2023-04-20T09:31:48.232Z,8.60
2023-04-20T09:34:15.902Z,10.90
2023-04-20T09:36:49.858Z,8.30
2023-04-20T09:39:18.956Z,6.10
2023-04-20T09:41:46.524Z,6.70
2023-04-20T09:44:15.713Z,7.20
2023-04-20T09:46:43.574Z,4.70
2023-04-20T09:49:12.052Z,2.80
2023-04-20T09:51:46.601Z,2.20
2023-04-20T09:54:15.302Z,4.20
2023-04-20T09:56:42.722Z,1.30
2023-04-20T09:59:10.080Z,2.70
2023-04-20T10:01:37.882Z,2.60
2023-04-20T10:04:10.541Z,4.70
2023-04-20T10:06:37.881Z,1.00
2023-04-20T10:09:06.481Z,2.70
2023-04-20T10:11:51.604Z,4.80
2023-04-20T10:14:25.061Z,3.70
2023-04-20T10:16:59.500Z,1.20
2023-04-20T10:19:56.326Z,3.20
2023-04-20T10:22:34.300Z,1.40
2023-04-20T10:25:02.275Z,3.70
2023-04-20T10:27:31.775Z,2.60
2023-04-20T10:30:11.334Z,2.30
2023-04-20T10:35:08.078Z,2.90
2023-04-20T10:37:35.723Z,2.70
2023-04-20T10:40:06.005Z,2.40
2023-04-20T10:42:45.137Z,4.10
2023-04-20T10:45:12.851Z,2.40
2023-04-20T10:47:44.648Z,3.50
2023-04-20T10:50:13.899Z,1.30
2023-04-20T10:52:41.978Z,1.70
2023-04-20T10:55:20.383Z,1.00
2023-04-20T10:57:54.540Z,2.10
2023-04-20T11:00:32.504Z,2.10
2023-04-20T11:02:59.882Z,1.80
2023-04-20T11:05:27.208Z,3.20
2023-04-20T11:07:55.109Z,1.10
2023-04-20T11:10:24.278Z,2.50
2023-04-20T11:13:07.714Z,2.10
2023-04-20T11:15:35.059Z,1.80
2023-04-20T11:18:11.388Z,4.50
2023-04-20T11:20:52.239Z,1.70
2023-04-20T11:23:20.879Z,2.50
2023-04-20T11:25:52.565Z,2.70
2023-04-20T11:28:20.332Z,1.10
2023-04-20T11:30:49.190Z,3.60
2023-04-20T11:33:29.443Z,2.60
2023-04-20T11:35:57.521Z,2.30
2023-04-20T11:38:42.902Z,1.50
2023-04-20T11:41:10.459Z,1.70
2023-04-20T11:43:37.812Z,1.70
2023-04-20T11:46:35.243Z,2.50
2023-04-20T11:49:04.184Z,3.40
2023-04-20T11:51:31.713Z,1.60
2023-04-20T11:53:58.867Z,1.30
2023-04-20T11:56:26.434Z,3.90
2023-04-20T11:58:53.738Z,3.10
2023-04-20T12:01:21.036Z,1.50
2023-04-20T12:03:48.458Z,10.40
2023-04-20T12:06:15.963Z,2.30
2023-04-20T12:08:43.502Z,3.50
2023-04-20T12:11:10.766Z,2.40
2023-04-20T12:13:38.226Z,3.10
2023-04-20T12:16:06.434Z,2.30
2023-04-20T12:18:33.747Z,3.70
2023-04-20T12:21:01.016Z,1.90
2023-04-20T12:23:28.349Z,1.80
2023-04-20T12:25:55.697Z,4.00
2023-04-20T12:28:23.159Z,13.00
2023-04-20T12:30:50.716Z,3.60
2023-04-20T12:33:18.174Z,2.30
2023-04-20T12:35:45.558Z,2.90
2023-04-20T12:38:14.552Z,3.00
2023-04-20T12:40:41.797Z,5.20
2023-04-20T12:43:08.935Z,6.10
2023-04-20T12:45:36.810Z,2.70
2023-04-20T12:48:04.596Z,2.30
2023-04-20T12:50:31.910Z,2.40
2023-04-20T12:52:59.165Z,2.30
2023-04-20T12:55:26.422Z,2.50
2023-04-20T12:57:53.664Z,2.20
2023-04-20T13:00:21.534Z,3.10
2023-04-20T13:02:49.787Z,7.10
2023-04-20T13:05:16.984Z,5.50
2023-04-20T13:07:44.720Z,1.80
2023-04-20T13:10:12.186Z,3.90
2023-04-20T13:12:40.074Z,4.40
2023-04-20T13:15:08.761Z,3.20
2023-04-20T13:17:36.785Z,5.20
2023-04-20T13:20:05.914Z,4.40
2023-04-20T13:22:35.738Z,3.70
2023-04-20T13:25:05.932Z,2.30
2023-04-20T13:27:33.081Z,2.70
2023-04-20T13:30:00.305Z,2.10
2023-04-20T13:32:27.494Z,2.90
2023-04-20T13:34:54.744Z,2.50
2023-04-20T13:37:22.292Z,4.60
2023-04-20T13:39:49.542Z,3.90
2023-04-20T13:42:16.693Z,3.10
2023-04-20T13:44:43.934Z,3.40
2023-04-20T13:47:11.300Z,3.40
2023-04-20T13:49:38.448Z,3.00
2023-04-20T13:52:05.718Z,2.80
2023-04-20T13:54:33.056Z,4.30
2023-04-20T13:57:01.136Z,4.90
2023-04-20T13:59:28.630Z,5.00
2023-04-20T14:01:55.850Z,2.60
2023-04-20T14:04:23.509Z,3.90
2023-04-20T14:06:51.983Z,16.40
2023-04-20T14:09:19.357Z,9.80
2023-04-20T14:11:46.712Z,3.80
2023-04-20T14:14:14.200Z,2.90
2023-04-20T14:16:46.113Z,4.60
2023-04-20T14:19:13.672Z,3.20
2023-04-20T14:21:40.887Z,3.00
2023-04-20T14:24:08.826Z,5.10
2023-04-20T14:26:36.455Z,4.80
2023-04-20T14:29:04.520Z,3.20
2023-04-20T14:31:32.316Z,4.00
2023-04-20T14:33:59.584Z,2.90
2023-04-20T14:36:27.401Z,2.90
2023-04-20T14:38:55.276Z,3.50
2023-04-20T14:41:22.537Z,2.80
2023-04-20T14:43:49.781Z,3.20
2023-04-20T14:46:18.193Z,3.20
2023-04-20T14:48:46.042Z,2.80
2023-04-20T14:51:13.585Z,4.70
2023-04-20T14:53:40.779Z,4.30
2023-04-20T14:56:08.102Z,6.50
2023-04-20T14:58:36.971Z,4.50
2023-04-20T15:01:04.533Z,5.30
2023-04-20T15:03:32.329Z,4.30
2023-04-20T15:06:01.184Z,4.80
2023-04-20T15:08:28.551Z,6.10
2023-04-20T15:10:56.407Z,7.10
2023-04-20T15:13:23.974Z,5.00
2023-04-20T15:15:54.238Z,6.00
2023-04-20T15:18:22.869Z,5.90
2023-04-20T15:20:51.859Z,7.80
2023-04-20T15:23:19.560Z,4.90
2023-04-20T15:25:47.103Z,7.90
2023-04-20T15:28:15.158Z,6.60
2023-04-20T15:30:42.709Z,10.50
2023-04-20T15:33:10.630Z,7.80
2023-04-20T15:35:38.187Z,13.50
2023-04-20T15:38:08.893Z,7.40
2023-04-20T15:40:38.375Z,6.60
2023-04-20T15:43:06.243Z,7.30
2023-04-20T15:45:33.782Z,6.60
2023-04-20T15:48:01.532Z,8.00
2023-04-20T15:50:29.682Z,8.30
2023-04-20T15:52:57.211Z,9.50
2023-04-20T15:55:25.600Z,8.40
2023-04-20T15:57:56.821Z,10.80
2023-04-20T16:00:24.903Z,10.10
2023-04-20T16:02:53.879Z,17.90
2023-04-20T16:05:21.572Z,12.40
2023-04-20T16:07:48.850Z,13.90
2023-04-20T16:10:19.213Z,21.20
2023-04-20T16:12:46.886Z,20.00
2023-04-20T16:15:14.126Z,20.50
2023-04-20T16:17:43.891Z,13.20
2023-04-20T16:20:12.461Z,13.40
2023-04-20T16:22:40.380Z,16.10
2023-04-20T16:25:12.596Z,21.20
2023-04-20T16:27:42.928Z,18.80
2023-04-20T16:30:12.275Z,23.30
2023-04-20T16:32:41.659Z,16.70
2023-04-20T16:35:10.434Z,16.30
2023-04-20T16:37:38.467Z,17.50
2023-04-20T16:40:08.954Z,19.10
2023-04-20T16:42:36.635Z,17.20
2023-04-20T16:45:07.822Z,17.00
2023-04-20T16:47:40.165Z,16.50
2023-04-20T16:50:09.002Z,12.40
2023-04-20T16:52:37.445Z,9.40
2023-04-20T16:55:05.874Z,14.60
2023-04-20T16:57:33.686Z,11.20
2023-04-20T17:00:02.286Z,10.40
2023-04-20T17:02:32.783Z,10.60
2023-04-20T17:05:03.071Z,10.00
2023-04-20T17:07:30.919Z,9.80
2023-04-20T17:09:59.611Z,9.30
2023-04-20T17:12:27.310Z,11.50
2023-04-20T17:14:56.357Z,10.80
2023-04-20T17:17:25.764Z,14.90
2023-04-20T17:19:54.214Z,11.60
2023-04-20T17:22:22.702Z,14.10
2023-04-20T17:24:51.893Z,13.20
2023-04-20T17:27:20.160Z,13.50
2023-04-20T17:29:47.844Z,12.00
2023-04-20T17:32:15.619Z,12.00
2023-04-20T17:34:48.912Z,11.40
2023-04-20T17:37:20.046Z,9.40
2023-04-20T17:39:47.824Z,13.90
2023-04-20T17:42:18.615Z,9.90
2023-04-20T17:44:45.949Z,9.90
2023-04-20T17:47:14.454Z,13.60
2023-04-20T17:49:43.047Z,8.90
2023-04-20T17:52:15.839Z,14.90
2023-04-20T17:54:43.427Z,13.50
2023-04-20T17:57:13.805Z,13.00
2023-04-20T17:59:45.490Z,19.70
2023-04-20T18:02:13.233Z,17.40
2023-04-20T18:04:41.762Z,18.40
2023-04-20T18:07:09.674Z,21.70
2023-04-20T18:09:38.583Z,20.60
2023-04-20T18:12:12.683Z,22.20
2023-04-20T18:14:40.893Z,19.50
2023-04-20T18:17:08.441Z,24.00
2023-04-20T18:19:36.218Z,24.80
2023-04-20T18:22:06.194Z,19.60
2023-04-20T18:24:33.503Z,25.10
2023-04-20T18:27:01.620Z,19.50
2023-04-20T18:29:29.629Z,25.40
2023-04-20T18:31:58.849Z,33.20
2023-04-20T18:34:31.802Z,25.60
2023-04-20T18:36:59.239Z,31.00
2023-04-20T18:39:27.006Z,26.20
2023-04-20T18:41:54.965Z,28.80
2023-04-20T18:44:22.654Z,37.50
2023-04-20T18:46:50.569Z,34.70
2023-04-20T18:49:17.947Z,31.80
2023-04-20T18:51:45.508Z,38.10
2023-04-20T18:54:12.871Z,37.70
2023-04-20T18:56:40.964Z,33.50
2023-04-20T18:59:10.229Z,34.60
2023-04-20T19:01:40.148Z,39.40
2023-04-20T19:04:08.437Z,36.20
2023-04-20T19:06:37.413Z,37.10
2023-04-20T19:09:08.245Z,36.80
2023-04-20T19:11:36.050Z,45.30
2023-04-20T19:14:07.135Z,46.50
2023-04-20T19:16:34.873Z,46.80
2023-04-20T19:19:03.617Z,43.10
2023-04-20T19:21:32.736Z,36.20
2023-04-20T19:24:02.638Z,46.50
2023-04-20T19:26:30.844Z,52.10
2023-04-20T19:28:59.007Z,49.60
2023-04-20T19:31:31.710Z,40.70
2023-04-20T19:34:00.195Z,44.40
2023-04-20T19:36:28.101Z,39.80
2023-04-20T19:38:55.817Z,28.40
2023-04-20T19:41:26.031Z,32.40
2023-04-20T19:43:53.439Z,34.10
2023-04-20T19:46:21.767Z,28.10
2023-04-20T19:48:49.502Z,28.00
2023-04-20T19:51:16.947Z,43.10
2023-04-20T19:53:45.139Z,37.20
2023-04-20T19:56:12.423Z,26.60
2023-04-20T19:58:39.519Z,27.60
2023-04-20T20:01:07.003Z,23.30
2023-04-20T20:03:34.934Z,27.70
2023-04-20T20:06:04.642Z,26.10
2023-04-20T20:08:32.639Z,29.00
2023-04-20T20:10:59.990Z,20.70
2023-04-20T20:13:27.522Z,19.30
2023-04-20T20:16:03.724Z,24.70
2023-04-20T20:18:31.456Z,27.30
2023-04-20T20:20:58.698Z,20.40
2023-04-20T20:23:26.053Z,19.40
2023-04-20T20:25:53.532Z,16.40
2023-04-20T20:28:21.240Z,16.30
2023-04-20T20:30:48.556Z,21.80
2023-04-20T20:33:15.981Z,23.70
2023-04-20T20:35:44.096Z,21.90
2023-04-20T20:38:11.828Z,25.50
2023-04-20T20:40:39.575Z,24.60
2023-04-20T20:43:06.945Z,21.10
2023-04-20T20:45:34.409Z,18.00
2023-04-20T20:48:02.115Z,20.10
2023-04-20T20:50:29.814Z,24.20
2023-04-20T20:52:57.281Z,17.10
2023-04-20T20:55:25.037Z,19.60
2023-04-20T20:57:52.351Z,15.60
2023-04-20T21:00:20.009Z,22.00
2023-04-20T21:02:47.372Z,19.40
2023-04-20T21:05:14.618Z,19.90
2023-04-20T21:07:44.382Z,21.00
2023-04-20T21:10:11.981Z,21.90
2023-04-20T21:12:40.006Z,16.10
2023-04-20T21:15:09.736Z,17.60
2023-04-20T21:17:39.372Z,18.70
2023-04-20T21:20:09.136Z,18.20
2023-04-20T21:22:38.022Z,21.90
2023-04-20T21:25:06.096Z,16.70
2023-04-20T21:27:33.764Z,17.80
2023-04-20T21:30:03.059Z,24.10
2023-04-20T21:32:30.817Z,19.80
2023-04-20T21:34:57.880Z,20.60
2023-04-20T21:37:25.125Z,16.10
2023-04-20T21:39:52.386Z,18.90
2023-04-20T21:42:19.829Z,18.90
2023-04-20T21:44:47.083Z,17.60
2023-04-20T21:47:14.330Z,22.90
2023-04-20T21:49:43.320Z,17.90
2023-04-20T21:52:10.577Z,19.50
2023-04-20T21:54:39.672Z,22.80
2023-04-20T21:57:06.924Z,17.80
2023-04-20T21:59:34.812Z,15.70
2023-04-20T22:02:02.290Z,22.10
2023-04-20T22:04:30.056Z,15.50
2023-04-20T22:06:57.501Z,21.90
2023-04-20T22:09:25.445Z,20.70
2023-04-20T22:11:53.301Z,22.30
2023-04-20T22:14:20.861Z,18.30
2023-04-20T22:16:48.044Z,23.30
2023-04-20T22:19:15.992Z,22.60
2023-04-20T22:21:43.432Z,17.60
2023-04-20T22:24:10.603Z,23.50
2023-04-20T22:26:37.730Z,24.80
2023-04-20T22:29:04.948Z,22.30
2023-04-20T22:31:32.716Z,23.40
2023-04-20T22:34:00.203Z,23.70
2023-04-20T22:36:27.825Z,18.80
2023-04-20T22:38:54.993Z,17.30
2023-04-20T22:41:22.272Z,23.00
2023-04-20T22:43:49.530Z,19.40
2023-04-20T22:46:16.945Z,21.80
2023-04-20T22:48:47.248Z,18.50
2023-04-20T22:51:16.815Z,20.10
2023-04-20T22:53:44.161Z,21.30
2023-04-20T22:56:11.428Z,20.90
2023-04-20T22:58:38.764Z,22.70
2023-04-20T23:01:05.949Z,18.60
2023-04-20T23:03:33.472Z,17.70
2023-04-20T23:06:00.937Z,14.60
2023-04-20T23:08:28.199Z,18.90
2023-04-20T23:10:55.178Z,13.60
2023-04-20T23:13:25.663Z,17.10
2023-04-20T23:15:52.926Z,18.40
2023-04-20T23:18:20.704Z,18.90
2023-04-20T23:20:47.921Z,30.60
2023-04-20T23:23:15.190Z,15.50
2023-04-20T23:25:42.792Z,16.70
2023-04-20T23:28:10.419Z,20.90
2023-04-20T23:30:37.655Z,17.50
2023-04-20T23:33:05.144Z,18.00
2023-04-20T23:35:33.115Z,21.20
2023-04-20T23:38:00.531Z,16.80
2023-04-20T23:40:27.683Z,19.90
2023-04-20T23:42:54.840Z,16.40
2023-04-20T23:45:22.497Z,17.20
2023-04-20T23:47:49.670Z,16.60
2023-04-20T23:50:17.003Z,20.40
2023-04-20T23:52:44.262Z,24.00
2023-04-20T23:55:11.398Z,13.00
2023-04-20T23:57:39.475Z,18.70
